PWSweather.com
Personal Weather Stations
Station Observations
AS787
Cloppers Mill East, Germantown, MD 20874-2154

Cloppers Mill EastGermantown, MD 20874-2154

Lat: 39.1522, Lon: -77.2679

Elevation: 318

Station Type: 1-Wire

http://www.cloppermillweather.org/

High Low Average
Temperature 66.0°F18.9°C 41.6°F5.3°C 52.5°F11.4°C
Dew Point 62.3°F16.8°C 40.8°F4.9°C 51.2°F10.7°C
Winds 3.6 mph 5.8 kmh Calm Calm Calm SWCalm SW
Wind Gusts 8.0 mph12.9 kmh -- 2.0 mph3.2 kmh
Humidity 98% 87% 96%
Pressure 30.03 in1016.9 mb 29.82 in1009.8 mb -
Precipitation 0.00 in0.0 mm - -
Hour Temp Dew Point Humidity Winds Wind Gusts Pressure Precip Precip Rate Daily Precip Total
12:14 AM 41.8°F5.4°C 41.0°F5.0°C 97% Calm Calm -- 30.04 in1017.3 mb 0.00 in0.0 mm 0.00 in0.0 mm 0.00 in0.0 mm
12:44 AM 41.5°F5.3°C 40.5°F4.7°C 96% Calm Calm -- 30.01 in1016.3 mb 0.01 in0.3 mm 0.02 in0.5 mm 0.01 in0.3 mm
01:14 AM 41.8°F5.4°C 41.0°F5.0°C 97% Calm Calm -- 30.03 in1016.9 mb 0.00 in0.0 mm 0.00 in0.0 mm 0.01 in0.3 mm
01:44 AM 41.7°F5.4°C 40.9°F4.9°C 97% Calm Calm -- 30.03 in1016.9 mb 0.01 in0.3 mm 0.02 in0.5 mm 0.02 in0.5 mm
02:14 AM 41.6°F5.3°C 40.8°F4.9°C 97% Calm Calm -- 30.01 in1016.3 mb 0.00 in0.0 mm 0.00 in0.0 mm 0.02 in0.5 mm
02:44 AM 41.8°F5.4°C 41.0°F5.0°C 97% Calm Calm -- 30.02 in1016.6 mb 0.00 in0.0 mm 0.00 in0.0 mm 0.02 in0.5 mm
03:14 AM 41.8°F5.4°C 41.0°F5.0°C 97% Calm Calm -- 30.01 in1016.3 mb 0.00 in0.0 mm 0.00 in0.0 mm 0.02 in0.5 mm
03:44 AM 41.9°F5.5°C 41.1°F5.1°C 97% Calm Calm -- 30.01 in1016.3 mb 0.02 in0.5 mm 0.04 in1.0 mm 0.04 in1.0 mm
04:14 AM 42.0°F5.6°C 41.2°F5.1°C 97% Calm Calm -- 29.99 in1015.6 mb 0.01 in0.3 mm 0.00 in0.0 mm 0.04 in1.0 mm
04:44 AM 42.0°F5.6°C 41.2°F5.1°C 97% Calm Calm -- 29.99 in1015.6 mb 0.04 in1.0 mm 0.06 in1.5 mm 0.07 in1.8 mm
05:14 AM 42.0°F5.6°C 41.2°F5.1°C 97% Calm Calm -- 29.98 in1015.2 mb 0.02 in0.5 mm 0.00 in0.0 mm 0.07 in1.8 mm
05:44 AM 42.4°F5.8°C 41.6°F5.3°C 97% Calm Calm -- 29.98 in1015.2 mb 0.07 in1.8 mm 0.10 in2.5 mm 0.12 in3.0 mm
06:14 AM 42.7°F5.9°C 41.9°F5.5°C 97% Calm Calm -- 29.98 in1015.2 mb 0.02 in0.5 mm 0.00 in0.0 mm 0.12 in3.0 mm
06:44 AM 42.9°F6.1°C 42.1°F5.6°C 97% Calm Calm -- 29.96 in1014.6 mb 0.07 in1.8 mm 0.10 in2.5 mm 0.17 in4.3 mm
07:14 AM 43.7°F6.5°C 42.9°F6.1°C 97% Calm Calm -- 29.96 in1014.6 mb 0.03 in0.8 mm 0.00 in0.0 mm 0.17 in4.3 mm
07:44 AM 43.7°F6.5°C 42.9°F6.1°C 97% Calm Calm -- 29.94 in1013.9 mb 0.08 in2.0 mm 0.10 in2.5 mm 0.22 in5.6 mm
08:14 AM 44.6°F7.0°C 43.8°F6.6°C 97% Calm Calm -- 29.96 in1014.6 mb 0.03 in0.8 mm 0.00 in0.0 mm 0.22 in5.6 mm
08:44 AM 44.5°F6.9°C 43.7°F6.5°C 97% Calm Calm -- 29.96 in1014.6 mb 0.06 in1.5 mm 0.06 in1.5 mm 0.25 in6.4 mm
09:14 AM 44.5°F6.9°C 43.7°F6.5°C 97% Calm Calm -- 29.97 in1014.9 mb 0.02 in0.5 mm 0.00 in0.0 mm 0.25 in6.4 mm
09:44 AM 44.7°F7.1°C 43.9°F6.6°C 97% Calm Calm -- 29.95 in1014.2 mb 0.05 in1.3 mm 0.06 in1.5 mm 0.28 in7.1 mm
10:14 AM 45.5°F7.5°C 44.7°F7.1°C 97% Calm Calm -- 29.95 in1014.2 mb 0.00 in0.0 mm 0.00 in0.0 mm 0.28 in7.1 mm
10:44 AM 46.4°F8.0°C 45.8°F7.7°C 98% Calm Calm -- 29.93 in1013.5 mb 0.01 in0.3 mm 0.02 in0.5 mm 0.29 in7.4 mm
11:14 AM 47.5°F8.6°C 46.9°F8.3°C 98% Calm Calm -- 29.92 in1013.2 mb 0.02 in0.5 mm 0.02 in0.5 mm 0.30 in7.6 mm
11:44 AM 49.9°F9.9°C 49.4°F9.7°C 98% Calm Calm -- 29.91 in1012.9 mb 0.06 in1.5 mm 0.08 in2.0 mm 0.34 in8.6 mm
12:14 PM 53.6°F12.0°C 53.0°F11.7°C 98% 0.6 mph SSW1.0 kmh SSW 4.0 mph6.4 kmh 29.91 in1012.9 mb 0.00 in0.0 mm 0.00 in0.0 mm 0.34 in8.6 mm
12:44 PM 51.3°F10.7°C 50.8°F10.4°C 98% Calm Calm 3.0 mph4.8 kmh 29.89 in1012.2 mb 0.00 in0.0 mm 0.00 in0.0 mm 0.34 in8.6 mm
01:14 PM 51.4°F10.8°C 50.5°F10.3°C 97% 0.2 mph SW0.3 kmh SW 1.0 mph1.6 kmh 29.87 in1011.5 mb 0.01 in0.3 mm 0.02 in0.5 mm 0.35 in8.9 mm
01:44 PM 52.0°F11.1°C 51.5°F10.8°C 98% Calm Calm -- 29.86 in1011.2 mb 0.01 in0.3 mm 0.00 in0.0 mm 0.35 in8.9 mm
02:14 PM 53.9°F12.2°C 53.4°F11.9°C 98% Calm Calm -- 29.85 in1010.8 mb 0.00 in0.0 mm 0.00 in0.0 mm 0.35 in8.9 mm
02:44 PM 54.6°F12.6°C 54.0°F12.2°C 98% Calm Calm -- 29.82 in1009.8 mb 0.00 in0.0 mm 0.00 in0.0 mm 0.35 in8.9 mm
03:14 PM 56.3°F13.5°C 55.8°F13.2°C 98% Calm Calm -- 29.82 in1009.8 mb 0.00 in0.0 mm 0.00 in0.0 mm 0.35 in8.9 mm
03:44 PM 56.4°F13.6°C 55.8°F13.2°C 98% Calm Calm -- 29.82 in1009.8 mb 0.00 in0.0 mm 0.00 in0.0 mm 0.35 in8.9 mm
04:14 PM 56.9°F13.8°C 56.4°F13.6°C 98% Calm Calm -- 29.83 in1010.2 mb 0.00 in0.0 mm 0.00 in0.0 mm 0.35 in8.9 mm
04:44 PM 58.8°F14.9°C 58.2°F14.6°C 98% Calm Calm -- 29.83 in1010.2 mb 0.00 in0.0 mm 0.00 in0.0 mm 0.35 in8.9 mm
05:14 PM 58.5°F14.7°C 57.9°F14.4°C 98% Calm Calm -- 29.83 in1010.2 mb 0.00 in0.0 mm 0.00 in0.0 mm 0.35 in8.9 mm
05:44 PM 58.7°F14.8°C 58.1°F14.5°C 98% Calm Calm 4.0 mph6.4 kmh 29.83 in1010.2 mb 0.00 in0.0 mm 0.00 in0.0 mm 0.35 in8.9 mm
06:14 PM 62.8°F17.1°C 62.2°F16.8°C 98% 1.2 mph SSW1.9 kmh SSW 8.0 mph12.9 kmh 29.83 in1010.2 mb 0.00 in0.0 mm 0.00 in0.0 mm 0.35 in8.9 mm
06:44 PM 65.4°F18.6°C 62.1°F16.7°C 89% 1.8 mph SW2.9 kmh SW 8.0 mph12.9 kmh 29.84 in1010.5 mb 0.00 in0.0 mm 0.00 in0.0 mm 0.35 in8.9 mm
07:14 PM 66.0°F18.9°C 62.3°F16.8°C 88% 3.6 mph SW5.8 kmh SW 7.0 mph11.3 kmh 29.85 in1010.8 mb 0.00 in0.0 mm 0.00 in0.0 mm 0.35 in8.9 mm
07:44 PM 65.9°F18.8°C 62.0°F16.7°C 87% 0.1 mph SW0.2 kmh SW 6.0 mph9.7 kmh 29.86 in1011.2 mb 0.00 in0.0 mm 0.00 in0.0 mm 0.35 in8.9 mm
08:14 PM 65.2°F18.4°C 61.5°F16.4°C 88% 2.1 mph SW3.4 kmh SW 5.0 mph8.0 kmh 29.86 in1011.2 mb 0.00 in0.0 mm 0.00 in0.0 mm 0.35 in8.9 mm
08:44 PM 64.5°F18.1°C 60.9°F16.1°C 88% 0.0 mph SSW0.0 kmh SSW 7.0 mph11.3 kmh 29.87 in1011.5 mb 0.00 in0.0 mm 0.00 in0.0 mm 0.35 in8.9 mm
09:14 PM 63.8°F17.7°C 60.9°F16.1°C 90% 0.2 mph SW0.3 kmh SW 2.0 mph3.2 kmh 29.88 in1011.9 mb 0.00 in0.0 mm 0.00 in0.0 mm 0.35 in8.9 mm
09:44 PM 63.8°F17.7°C 61.4°F16.3°C 92% Calm Calm 6.0 mph9.7 kmh 29.88 in1011.9 mb 0.00 in0.0 mm 0.00 in0.0 mm 0.35 in8.9 mm
10:14 PM 63.8°F17.7°C 61.5°F16.4°C 92% Calm Calm 5.0 mph8.0 kmh 29.89 in1012.2 mb 0.00 in0.0 mm 0.00 in0.0 mm 0.35 in8.9 mm
10:44 PM 64.0°F17.8°C 61.6°F16.4°C 92% Calm Calm 7.0 mph11.3 kmh 29.90 in1012.5 mb 0.00 in0.0 mm 0.00 in0.0 mm 0.35 in8.9 mm
11:14 PM 63.9°F17.7°C 61.6°F16.4°C 92% 0.5 mph SW0.8 kmh SW 7.0 mph11.3 kmh 29.91 in1012.9 mb 0.00 in0.0 mm 0.00 in0.0 mm 0.35 in8.9 mm
11:44 PM 63.7°F17.6°C 61.4°F16.3°C 92% 0.0 mph SW0.0 kmh SW 5.0 mph8.0 kmh 29.92 in1013.2 mb 0.00 in0.0 mm 0.00 in0.0 mm 0.35 in8.9 mm